Flight Track Log - Related Links

Times and Time Zones

All times are in EST time to prevent confusion due to time zone crossing. See the OPT332 flight status page for this flight to view local times or setup timezone preferences in your user account.

Time Position Orientation Groundspeed Altitude Reporting Facility
EST Latitude Longitude Course Direction KTS MPH feet Rate Location/Type
Sun 03:18:16 PM 43.6386 -116.5831 324° Northwest 160 184 4,200  Level Salt Lake Center
Sun 03:19:10 PM 43.6708 -116.6156 324° Northwest 168 193 5,500 2,713 Climbing Salt Lake Center
Sun 03:20:11 PM 43.6422 -116.6558 226° Southwest 203 234 9,400 3,618 Climbing Salt Lake Center
Sun 03:20:18 PM 43.6364 -116.6528 159° South 198 228 9,600 2,557 Climbing Salt Lake Center
Sun 03:21:12 PM 43.5989 -116.5889 129° Southeast 268 308 12,000 2,323 Climbing Salt Lake Center
Sun 03:21:20 PM 43.5950 -116.5794 120° Southeast 252 290 12,000 87 Level Salt Lake Center
Sun 03:22:21 PM 43.5658 -116.4794 112° Southeast 281 323 12,100 1,366 Climbing Salt Lake Center
Sun 03:23:23 PM 43.5425 -116.3389 103° East 331 381 14,800 2,903 Climbing Salt Lake Center
Sun 03:24:25 PM 43.5258 -116.2094 100° East 329 379 18,100 3,122 Climbing Salt Lake Center
Sun 03:25:26 PM 43.5056 -116.0778 102° East 353 406 21,200 2,780 Climbing Salt Lake Center
Sun 03:26:28 PM 43.4831 -115.9406 103° East 369 425 23,800 2,468 Climbing Salt Lake Center
Sun 03:27:30 PM 43.4617 -115.7961 101° East 385 443 26,300 2,341 Climbing Salt Lake Center
Sun 03:28:31 PM 43.4411 -115.6464 101° East 399 459 28,600 2,390 Climbing Salt Lake Center
Sun 03:29:33 PM 43.4236 -115.4914 99° East 410 472 31,200 2,613 Climbing Salt Lake Center
Sun 03:30:35 PM 43.3956 -115.3097 102° East 409 471 34,000 2,341 Climbing Salt Lake Center
Sun 03:31:36 PM 43.3681 -115.1631 104° East 401 461 36,000 1,406 Climbing Salt Lake Center
Sun 03:36:59 PM 43.2171 -114.3696 104° East 397 457 43,000 1,240 Climbing FlightAware ADS-B
Sun 03:37:39 PM 43.1978 -114.2700 105° East 400 460 43,500 706 Climbing FlightAware ADS-B
Sun 03:37:50 PM 43.1924 -114.2421 105° East 400 460 43,600 667 Climbing FlightAware ADS-B
Sun 03:38:33 PM 43.1809 -114.1372 99° East 403 464 44,100 730 Climbing FlightAware ADS-B
Sun 03:39:04 PM 43.1749 -114.0586 96° East 403 464 44,500 787 Climbing FlightAware ADS-B
Sun 03:39:34 PM 43.1686 -113.9807 96° East 403 464 44,900 405 Climbing FlightAware ADS-B
Sun 03:40:18 PM 43.1592 -113.8685 97° East 415 478 45,000 32 Climbing FlightAware ADS-B
Sun 03:42:39 PM 43.1264 -113.4890 97° East 437 503 45,000  Level FlightAware ADS-B
Sun 03:43:29 PM 43.1144 -113.3533 97° East 445 512 45,000  Level FlightAware ADS-B
Sun 03:43:39 PM 43.1117 -113.3230 97° East 446 513 45,000  Level FlightAware ADS-B
Sun 03:44:09 PM 43.1040 -113.2360 97° East 448 516 45,000  Level FlightAware ADS-B
Sun 03:44:20 PM 43.1018 -113.2131 97° East 450 518 45,000  Level FlightAware ADS-B
Sun 03:44:40 PM 43.0963 -113.1510 97° East 451 519 45,000  Level FlightAware ADS-B
Sun 03:44:50 PM 43.0943 -113.1305 97° East 454 522 45,000  Level FlightAware ADS-B
Sun 03:45:23 PM 43.0851 -113.0302 97° East 456 525 45,000  Level FlightAware ADS-B
Sun 03:45:37 PM 43.0812 -112.9880 97° East 456 525 45,000  Level FlightAware ADS-B
Sun 03:46:08 PM 43.0730 -112.8990 97° East 460 529 45,000  Level FlightAware ADS-B
Sun 03:46:22 PM 43.0692 -112.8596 97° East 459 528 45,000  Level FlightAware ADS-B
Sun 03:46:58 PM 43.0592 -112.7535 97° East 462 532 45,000  Level FlightAware ADS-B
Sun 03:47:31 PM 43.0503 -112.6585 97° East 465 535 45,000  Level FlightAware ADS-B
Sun 03:48:22 PM 43.0359 -112.5094 97° East 468 539 45,000  Level FlightAware ADS-B
Sun 03:48:53 PM 43.0271 -112.4189 98° East 469 540 45,000  Level FlightAware ADS-B
Sun 03:49:46 PM 43.0117 -112.2627 98° East 471 542 45,000  Level FlightAware ADS-B
Sun 03:51:17 PM 42.9848 -111.9950 98° East 473 544 45,000  Level FlightAware ADS-B
Sun 03:51:48 PM 42.9754 -111.9040 98° East 473 544 45,000  Level FlightAware ADS-B
Sun 03:52:18 PM 42.9662 -111.8140 98° East 472 543 45,000  Level FlightAware ADS-B
Sun 03:53:02 PM 42.9528 -111.6850 98° East 476 548 45,000  Level FlightAware ADS-B
Sun 03:53:32 PM 42.9432 -111.5930 98° East 477 549 45,000  Level FlightAware ADS-B
Sun 03:54:07 PM 42.9323 -111.4900 98° East 476 548 45,000  Level FlightAware ADS-B
Sun 03:54:55 PM 42.9173 -111.3500 98° East 475 547 45,000  Level FlightAware ADS-B
Sun 03:56:15 PM 42.8933 -111.1189 98° East 478 550 45,000  Level Salt Lake Center
Sun 03:57:17 PM 42.8736 -110.9461 99° East 483 556 45,000  Level Salt Lake Center
Sun 03:58:18 PM 42.8547 -110.7744 98° East 481 554 45,000  Level Salt Lake Center
Sun 03:59:20 PM 42.8308 -110.5764 99° East 478 550 45,000  Level Salt Lake Center
Sun 04:00:22 PM 42.8111 -110.4069 99° East 475 547 45,000  Level Salt Lake Center
Sun 04:01:23 PM 42.7869 -110.2050 99° East 482 555 45,000  Level Salt Lake Center
Sun 04:02:25 PM 42.7664 -110.0328 99° East 482 555 45,000  Level Salt Lake Center
Sun 04:03:27 PM 42.7428 -109.8308 99° East 483 556 45,000  Level Salt Lake Center
Sun 04:04:28 PM 42.7208 -109.6575 100° East 484 557 45,000  Level Salt Lake Center
Sun 04:05:30 PM 42.7000 -109.4844 99° East 485 558 45,000  Level Salt Lake Center
Sun 04:06:32 PM 42.6756 -109.2839 99° East 482 555 45,000  Level Salt Lake Center
Sun 04:07:33 PM 42.6525 -109.1100 100° East 485 558 45,000  Level Salt Lake Center
Sun 04:08:35 PM 42.6267 -108.9067 100° East 489 563 45,000  Level Salt Lake Center
Sun 04:09:37 PM 42.6044 -108.7322 100° East 489 563 45,000  Level Salt Lake Center
Sun 04:10:38 PM 42.5769 -108.5303 100° East 487 560 45,000  Level Salt Lake Center
Sun 04:11:40 PM 42.5550 -108.3558 100° East 489 563 45,000  Level Salt Lake Center
Sun 04:12:42 PM 42.5311 -108.1811 100° East 492 566 45,000  Level Salt Lake Center
Sun 04:13:43 PM 42.5022 -107.9767 101° East 492 566 45,000  Level Salt Lake Center
Sun 04:14:45 PM 42.4775 -107.8017 101° East 493 567 45,000  Level Salt Lake Center
Sun 04:15:47 PM 42.4492 -107.5989 101° East 492 566 45,000  Level Salt Lake Center
Sun 04:16:48 PM 42.4247 -107.4258 101° East 490 564 45,000  Level Salt Lake Center
Sun 04:17:50 PM 42.3994 -107.2550 101° East 484 557 45,000  Level Salt Lake Center
Sun 04:18:51 PM 42.3697 -107.0544 101° East 485 558 45,000  Level Salt Lake Center
Sun 04:19:53 PM 42.3447 -106.8839 101° East 485 558 45,000  Level Salt Lake Center
Sun 04:20:55 PM 42.3156 -106.6881 101° East 478 550 45,000  Level Salt Lake Center
Sun 04:21:56 PM 42.2903 -106.5286 102° East 479 551 45,000  Level Salt Lake Center
Sun 04:22:58 PM 42.2611 -106.3325 101° East 477 549 45,000  Level Salt Lake Center
Sun 04:24:00 PM 42.2342 -106.1647 102° East 479 551 45,000  Level Salt Lake Center
Sun 04:25:01 PM 42.2036 -105.9675 102° East 482 555 45,000  Level Salt Lake Center
Sun 04:26:03 PM 42.1767 -105.7969 102° East 487 560 45,000  Level Salt Lake Center
Sun 04:27:24 PM 42.1364 -105.5408 102° East 489 563 45,000  Level Denver Center
Sun 04:28:25 PM 42.1092 -105.3708 102° East 487 560 45,000  Level Denver Center
Sun 04:29:39 PM 42.0764 -105.1719 102° East 490 564 45,000  Level Denver Center
Sun 04:30:41 PM 42.0431 -104.9731 103° East 491 565 45,000  Level Denver Center
Sun 04:31:43 PM 42.0106 -104.7739 102° East 492 566 45,000  Level Denver Center
Sun 04:32:45 PM 41.9814 -104.6039 103° East 491 565 45,000  Level Denver Center
Sun 04:33:47 PM 41.9464 -104.4044 103° East 494 568 45,000  Level Denver Center
Sun 04:34:49 PM 41.9175 -104.2339 103° East 493 567 45,000  Level Denver Center
Sun 04:36:02 PM 41.8817 -104.0342 103° East 495 570 45,000  Level Denver Center
Sun 04:37:05 PM 41.8419 -103.8067 103° East 493 567 45,000  Level Denver Center
Sun 04:38:07 PM 41.8117 -103.6367 103° East 493 567 45,000  Level Denver Center
Sun 04:39:08 PM 41.7808 -103.4661 104° East 494 568 45,000  Level Denver Center
Sun 04:40:10 PM 41.7447 -103.2689 104° East 491 565 45,000  Level Denver Center
Sun 04:41:12 PM 41.7131 -103.0997 104° East 491 565 45,000  Level Denver Center
Sun 04:42:14 PM 41.6772 -102.9022 104° East 490 564 45,000  Level Denver Center
Sun 04:43:16 PM 41.6444 -102.7344 105° East 489 563 45,000  Level Denver Center
Sun 04:44:18 PM 41.6103 -102.5511 104° East 489 563 45,000  Level Denver Center
Sun 04:45:19 PM 41.5728 -102.3550 104° East 489 563 45,000  Level Denver Center
Sun 04:46:21 PM 41.5411 -102.1856 104° East 491 565 45,000  Level Denver Center
Sun 04:47:23 PM 41.5025 -101.9881 105° East 493 567 45,000  Level Denver Center
Sun 04:48:25 PM 41.4694 -101.8189 105° East 492 566 45,000  Level Denver Center
Sun 04:49:27 PM 41.4358 -101.6506 105° East 491 565 45,000  Level Denver Center
Sun 04:50:28 PM 41.4017 -101.4828 105° East 490 564 45,000  Level Denver Center
Sun 04:51:31 PM 41.3633 -101.2900 105° East 484 557 45,000  Level Denver Center
Sun 04:57:23 PM 41.1505 -100.2670 105° East 480 552 45,000  Level FlightAware ADS-B
Sun 04:58:18 PM 41.1264 -100.1458 105° East 479 551 45,000  Level Minneapolis Center
Sun 04:59:20 PM 41.0825 -99.9431 106° East 478 550 45,000  Level Minneapolis Center
Sun 05:00:22 PM 41.0450 -99.7747 106° East 478 550 45,000  Level Minneapolis Center
Sun 05:01:23 PM 41.0086 -99.6075 106° East 476 548 45,000  Level Minneapolis Center
Sun 05:02:25 PM 40.9703 -99.4397 107° East 477 549 45,000  Level Minneapolis Center
Sun 05:03:27 PM 40.9336 -99.2739 106° East 475 547 45,000  Level Minneapolis Center
Sun 05:04:28 PM 40.9044 -99.1067 103° East 476 548 45,000  Level Minneapolis Center
Sun 05:05:30 PM 40.8917 -98.9300 95° East 480 552 45,000  Level Minneapolis Center
Sun 05:06:32 PM 40.8792 -98.7172 94° East 484 557 45,000  Level Minneapolis Center
Sun 05:07:33 PM 40.8675 -98.5389 95° East 487 560 45,000  Level Minneapolis Center
Sun 05:08:35 PM 40.8572 -98.3664 94° East 489 563 45,000  Level Minneapolis Center
Sun 05:09:37 PM 40.8464 -98.1867 94° East 491 565 45,000 -683 Level Minneapolis Center
Sun 05:10:38 PM 40.8347 -98.0042 95° East 498 573 43,600 -1,854 Descending Minneapolis Center
Sun 05:11:40 PM 40.8144 -97.7831 97° East 505 581 41,200 -2,146 Descending Minneapolis Center
Sun 05:12:41 PM 40.7533 -97.6178 116° Southeast 499 574 39,200 -1,951 Descending Minneapolis Center
Sun 05:13:43 PM 40.6903 -97.4519 117° Southeast 504 580 37,200 -1,935 Descending Minneapolis Center
Sun 05:14:45 PM 40.6219 -97.2772 117° Southeast 518 596 35,200 -1,951 Descending Minneapolis Center
Sun 05:15:46 PM 40.5528 -97.0994 117° Southeast 539 620 33,200 -1,949 Descending Minneapolis Center
Sun 05:21:16 PM 40.1567 -96.1057 117° Southeast 537 618 22,500 -2,020 Descending FlightAware ADS-B
Sun 05:22:21 PM 40.0751 -95.9233 120° Southeast 527 606 19,900 -1,632 Descending FlightAware ADS-B
Sun 05:23:10 PM 40.0626 -95.8953 120° Southeast 526 605 19,400 -1,418 Descending FlightAware ADS-B
Sun 05:24:11 PM 40.0011 -95.7573 120° Southeast 458 527 17,300 -2,593 Descending FlightAware ADS-B
Sun 05:25:52 PM 39.8573 -95.4384 120° Southeast 395 455 12,400 -1,939 Descending FlightAware ADS-B
Sun 05:26:55 PM 39.7833 -95.3500 120° Southeast 381 438 12,000 -134 Descending Kansas City TRACON
Sun 05:28:06 PM 39.6892 -95.2339 136° Southeast 377 434 12,100  Climbing Minneapolis Center
Sun 05:29:08 PM 39.6119 -95.1372 136° Southeast 380 437 12,000  Descending Minneapolis Center
Sun 05:30:09 PM 39.5375 -95.0453 136° Southeast 377 434 12,100  Climbing Minneapolis Center
Sun 05:31:01 PM 39.4667 -94.9667 139° Southeast 359 413 12,000 -480 Descending Kansas City TRACON
Sun 05:31:49 PM 39.4333 -94.8833 117° Southeast 353 406 11,300 -1,286 Descending Kansas City TRACON
Sun 05:32:25 PM 39.4297 -94.8158 94° East 332 382 10,200 -1,837 Descending Kansas City Center
Sun 05:33:27 PM 39.3986 -94.7147 112° Southeast 324 373 8,300 -2,032 Descending Kansas City Center
Sun 05:34:29 PM 39.3472 -94.6106 123° Southeast 306 352 6,000 -2,032 Descending Kansas City Center
Sun 05:35:31 PM 39.2900 -94.5525 142° Southeast 274 315 4,100 -1,645 Descending Kansas City Center
Sun 05:36:33 PM 39.2208 -94.5644 188° South 220 253 2,600 -1,104 Descending Kansas City Center
Sun 05:37:36 PM 39.1828 -94.5764 194° South 146 168 1,800 -720 Descending Kansas City Center
Sun 05:38:38 PM 39.1528 -94.5853 193° South 119 137 1,100 -387 Descending Kansas City Center
Sun 05:39:40 PM 39.1206 -94.5947 193° South 118 136 1,000 -97 Descending Kansas City Center

Login

Don't have an account? Register now (free) for customized features, flight alerts, and more!